Time;durP1;ratioP1;P1;durP2;ratioP2;P2;SDS_P1;SDS_P2;PMS_P1;PMS_P2;Temp;Humidity;BMP_temperature;BMP_pressure;BME280_temperature;BME280_humidity;BME280_pressure;Samples;Min_cycle;Max_cycle;Signal;HPM_P1;HPM_P2
2023/03/10 00:01:50;;;;;;;1.93;1.10;;;11.30;1.00;;;;;;5010107;28;20462;-80
2023/03/10 00:04:16;;;;;;;2.03;1.13;;;11.30;1.00;;;;;;5002650;28;20188;-81
2023/03/10 00:06:41;;;;;;;3.53;1.10;;;11.30;1.00;;;;;;4996691;28;20187;-81
2023/03/10 00:09:07;;;;;;;1.80;1.10;;;11.30;1.00;;;;;;5005272;28;20199;-81
2023/03/10 00:11:32;;;;;;;3.73;1.10;;;11.30;1.00;;;;;;4996734;28;20590;-81
2023/03/10 00:13:58;;;;;;;2.00;1.27;;;11.30;1.00;;;;;;4994641;28;20184;-81
2023/03/10 00:16:26;;;;;;;1.60;1.13;;;11.20;1.00;;;;;;4995263;28;20191;-81
2023/03/10 00:18:53;;;;;;;3.27;1.30;;;11.20;1.00;;;;;;5002250;28;20179;-81
2023/03/10 00:21:28;;;;;;;2.27;1.60;;;11.20;1.00;;;;;;4995401;28;20465;-81
2023/03/10 00:23:57;;;;;;;3.40;1.63;;;11.20;1.00;;;;;;4990643;28;20497;-81
2023/03/10 00:26:24;;;;;;;3.43;1.50;;;11.20;1.00;;;;;;4995073;28;20443;-80
2023/03/10 00:28:50;;;;;;;3.10;1.83;;;11.20;1.00;;;;;;4991556;28;20513;-81
2023/03/10 00:31:18;;;;;;;4.13;1.77;;;11.20;1.00;;;;;;5000149;28;20475;-81
2023/03/10 00:33:44;;;;;;;4.37;1.87;;;11.20;1.00;;;;;;4997223;28;20253;-81
2023/03/10 00:36:15;;;;;;;4.83;2.40;;;11.20;1.00;;;;;;4981747;28;20436;-81
2023/03/10 00:38:42;;;;;;;3.63;1.97;;;11.20;1.00;;;;;;4996126;28;20445;-81
2023/03/10 00:41:11;;;;;;;5.13;2.20;;;11.20;1.00;;;;;;5006323;28;20483;-81
2023/03/10 00:43:37;;;;;;;4.17;2.30;;;11.20;1.00;;;;;;5000531;28;20433;-81
2023/03/10 00:46:04;;;;;;;6.20;2.30;;;11.10;1.00;;;;;;4999063;28;20469;-79
2023/03/10 00:48:29;;;;;;;4.07;2.10;;;11.10;1.00;;;;;;5012827;28;20256;-80
2023/03/10 00:50:55;;;;;;;6.07;2.60;;;11.10;1.00;;;;;;5006159;28;20501;-81
2023/03/10 00:53:21;;;;;;;4.23;2.17;;;11.10;1.00;;;;;;5001472;28;20438;-81
2023/03/10 00:55:57;;;;;;;4.10;2.07;;;11.10;1.00;;;;;;4996052;28;20220;-80
2023/03/10 00:58:23;;;;;;;4.90;1.77;;;11.10;1.00;;;;;;5000440;28;20186;-80
2023/03/10 01:00:48;;;;;;;4.60;2.10;;;11.10;1.00;;;;;;4994797;28;21230;-80
2023/03/10 01:03:14;;;;;;;5.77;2.57;;;11.10;1.00;;;;;;5000436;28;20275;-81
2023/03/10 01:05:39;;;;;;;4.47;2.30;;;11.10;1.00;;;;;;4995781;28;20199;-80
2023/03/10 01:08:05;;;;;;;9.30;2.50;;;11.10;1.00;;;;;;5008878;28;20205;-81
2023/03/10 01:10:30;;;;;;;6.07;2.70;;;11.10;1.00;;;;;;4997162;28;20243;-80
2023/03/10 01:12:56;;;;;;;4.70;2.70;;;11.10;1.00;;;;;;4997665;28;20263;-80
2023/03/10 01:15:21;;;;;;;4.53;3.00;;;11.00;1.00;;;;;;5000256;28;20270;-80
2023/03/10 01:17:47;;;;;;;7.60;3.77;;;11.00;1.00;;;;;;4998742;28;20195;-80
2023/03/10 01:20:15;;;;;;;8.00;3.90;;;11.00;1.00;;;;;;4991453;28;20724;-80
2023/03/10 01:22:41;;;;;;;5.23;2.80;;;11.00;1.00;;;;;;4992278;28;20179;-81
2023/03/10 01:25:10;;;;;;;5.77;3.40;;;11.00;1.00;;;;;;4994778;28;20449;-81
2023/03/10 01:27:36;;;;;;;9.30;3.57;;;11.00;1.00;;;;;;4995509;28;20442;-80
2023/03/10 01:30:01;;;;;;;10.80;3.53;;;11.00;1.00;;;;;;5002710;28;20435;-81
2023/03/10 01:32:27;;;;;;;9.93;2.93;;;11.00;1.00;;;;;;4997616;28;20215;-81
2023/03/10 01:34:52;;;;;;;3.40;2.53;;;11.00;1.00;;;;;;4996518;28;20705;-81
2023/03/10 01:37:19;;;;;;;4.20;2.90;;;10.90;1.00;;;;;;5001783;28;20257;-80
2023/03/10 01:39:45;;;;;;;5.03;2.50;;;10.90;1.00;;;;;;5004512;28;20587;-80
2023/03/10 01:42:10;;;;;;;2.50;2.00;;;10.90;1.00;;;;;;5004968;28;20579;-81
2023/03/10 01:44:38;;;;;;;2.53;1.57;;;10.90;1.00;;;;;;4998836;28;20285;-81
2023/03/10 01:47:03;;;;;;;4.10;1.70;;;10.80;1.00;;;;;;5006946;28;20187;-81
2023/03/10 01:49:47;;;;;;;4.53;1.60;;;10.80;1.00;;;;;;4986078;28;21115;-79
2023/03/10 01:52:23;;;;;;;2.90;1.60;;;10.80;1.00;;;;;;5007924;28;20207;-81
2023/03/10 01:54:59;;;;;;;4.40;1.20;;;10.80;1.00;;;;;;5005703;28;20462;-81
2023/03/10 01:57:36;;;;;;;2.40;1.37;;;10.80;1.00;;;;;;5007189;28;20453;-81
2023/03/10 02:00:10;;;;;;;4.70;1.40;;;10.70;1.00;;;;;;5000079;28;20487;-81
2023/03/10 02:02:43;;;;;;;2.03;1.23;;;10.70;1.00;;;;;;4996309;28;20433;-80
2023/03/10 02:05:11;;;;;;;3.10;1.30;;;10.70;1.00;;;;;;5004168;28;20448;-81
2023/03/10 02:07:36;;;;;;;4.73;1.00;;;10.70;1.00;;;;;;5005288;28;20453;-81
2023/03/10 02:10:02;;;;;;;2.33;1.03;;;10.70;1.00;;;;;;5003106;28;20470;-81
2023/03/10 02:12:28;;;;;;;2.07;0.90;;;10.60;1.00;;;;;;4999457;28;20211;-81
2023/03/10 02:14:54;;;;;;;1.57;1.00;;;10.60;1.00;;;;;;5000735;28;20442;-81
2023/03/10 02:17:22;;;;;;;2.83;1.10;;;10.60;1.00;;;;;;5011334;28;20183;-81
2023/03/10 02:20:12;;;;;;;4.03;1.10;;;10.60;1.00;;;;;;5006730;28;20208;-82
2023/03/10 02:22:38;;;;;;;3.30;1.00;;;10.60;1.00;;;;;;4997838;28;20465;-81
2023/03/10 02:25:07;;;;;;;2.37;1.00;;;10.60;1.00;;;;;;4998993;28;20863;-81
2023/03/10 02:27:34;;;;;;;2.57;1.10;;;10.60;1.00;;;;;;5009676;28;20437;-80
2023/03/10 02:30:13;;;;;;;4.10;1.20;;;10.60;1.00;;;;;;4995655;28;20438;-81
2023/03/10 02:32:43;;;;;;;1.53;1.07;;;10.60;1.00;;;;;;4999823;28;20472;-80
2023/03/10 02:35:09;;;;;;;2.67;1.30;;;10.60;1.00;;;;;;4999643;28;20434;-81
2023/03/10 02:37:35;;;;;;;2.60;1.40;;;10.60;1.00;;;;;;5010952;28;20532;-80
2023/03/10 02:40:01;;;;;;;8.80;1.70;;;10.60;1.00;;;;;;5000330;28;20947;-82
2023/03/10 02:42:31;;;;;;;3.40;1.60;;;10.60;1.00;;;;;;5009565;28;20448;-81
2023/03/10 02:44:57;;;;;;;7.30;2.00;;;10.60;1.00;;;;;;4985081;28;20190;-82
2023/03/10 02:47:23;;;;;;;4.87;3.80;;;10.60;1.00;;;;;;5000157;28;20529;-82
2023/03/10 02:49:48;;;;;;;3.80;2.30;;;10.60;1.00;;;;;;4998119;28;21836;-82
2023/03/10 02:52:25;;;;;;;4.10;2.53;;;10.70;1.00;;;;;;5008404;28;20210;-82
2023/03/10 02:54:51;;;;;;;9.70;3.50;;;10.70;1.00;;;;;;4997992;28;20183;-81
2023/03/10 02:57:16;;;;;;;6.57;3.30;;;10.70;1.00;;;;;;4978190;28;20863;-82
2023/03/10 02:59:42;;;;;;;4.10;2.20;;;10.70;1.00;;;;;;5002341;28;20270;-81
2023/03/10 03:02:07;;;;;;;6.00;2.17;;;10.70;1.00;;;;;;4998565;28;20210;-81
2023/03/10 03:04:33;;;;;;;4.17;1.57;;;10.70;1.00;;;;;;4990577;28;20187;-81
2023/03/10 03:06:58;;;;;;;2.87;1.50;;;10.70;1.00;;;;;;5002466;28;20205;-82
2023/03/10 03:09:24;;;;;;;4.87;1.40;;;10.70;1.00;;;;;;5002739;28;20204;-81
2023/03/10 03:11:49;;;;;;;3.50;1.27;;;10.70;1.00;;;;;;5002007;28;20640;-81
2023/03/10 03:14:15;;;;;;;7.97;1.93;;;10.70;1.00;;;;;;4971645;28;20195;-82
2023/03/10 03:16:40;;;;;;;7.33;1.50;;;10.70;1.00;;;;;;4986711;28;20190;-81
2023/03/10 03:19:06;;;;;;;4.77;1.27;;;10.70;1.00;;;;;;5011534;28;20188;-81
2023/03/10 03:21:31;;;;;;;2.43;1.60;;;10.70;1.00;;;;;;5005407;28;20213;-81
2023/03/10 03:23:57;;;;;;;5.40;1.40;;;10.70;1.00;;;;;;5002208;28;20191;-81
2023/03/10 03:26:25;;;;;;;3.80;1.47;;;10.70;1.00;;;;;;4999181;28;20194;-81
2023/03/10 03:28:52;;;;;;;12.20;3.20;;;10.70;1.00;;;;;;5000228;28;20274;-81
2023/03/10 03:31:20;;;;;;;3.47;1.10;;;10.70;1.00;;;;;;5002988;28;20478;-81
2023/03/10 03:33:46;;;;;;;6.00;1.33;;;10.70;1.00;;;;;;5010811;28;20444;-82
2023/03/10 03:36:13;;;;;;;3.80;1.47;;;10.70;1.00;;;;;;5004026;28;20430;-82
2023/03/10 03:38:39;;;;;;;9.03;1.67;;;10.70;1.00;;;;;;5004233;28;20445;-82
2023/03/10 03:41:05;;;;;;;4.07;1.70;;;10.70;1.00;;;;;;4985516;28;20897;-82
2023/03/10 03:43:31;;;;;;;4.17;1.23;;;10.70;1.00;;;;;;5004396;28;20218;-82
2023/03/10 03:45:57;;;;;;;8.40;1.47;;;10.70;1.00;;;;;;5003607;28;20858;-82
2023/03/10 03:48:22;;;;;;;2.83;1.07;;;10.70;1.00;;;;;;5000685;28;20505;-81
2023/03/10 03:50:49;;;;;;;6.67;1.50;;;10.70;1.00;;;;;;5001810;28;20251;-82
2023/03/10 03:53:14;;;;;;;8.13;1.33;;;10.70;1.00;;;;;;4996999;28;20275;-82
2023/03/10 03:55:40;;;;;;;7.30;2.00;;;10.70;1.00;;;;;;4995393;28;20458;-82
2023/03/10 03:58:05;;;;;;;7.83;1.70;;;10.60;1.00;;;;;;4997256;28;20191;-82
2023/03/10 04:00:33;;;;;;;3.63;1.40;;;10.60;1.00;;;;;;5000501;28;20204;-81
2023/03/10 04:02:59;;;;;;;6.97;1.73;;;10.60;1.00;;;;;;5002574;28;20190;-81
2023/03/10 04:05:24;;;;;;;6.50;1.70;;;10.60;1.00;;;;;;4994287;28;20434;-80
2023/03/10 04:07:50;;;;;;;4.27;1.50;;;10.60;1.00;;;;;;5001548;28;20238;-80
2023/03/10 04:10:18;;;;;;;8.77;1.63;;;10.60;1.00;;;;;;5005159;28;20207;-80
2023/03/10 04:12:46;;;;;;;7.10;1.90;;;10.60;1.00;;;;;;4988102;28;20202;-81
2023/03/10 04:15:12;;;;;;;6.30;2.20;;;10.70;1.00;;;;;;4997524;28;20493;-80
2023/03/10 04:17:40;;;;;;;6.53;2.70;;;10.60;1.00;;;;;;4983637;28;20473;-81
2023/03/10 04:20:07;;;;;;;6.97;1.83;;;10.60;1.00;;;;;;5001910;28;20451;-80
2023/03/10 04:22:36;;;;;;;10.80;2.00;;;10.60;1.00;;;;;;4995618;28;20438;-80
2023/03/10 04:25:02;;;;;;;11.53;2.90;;;10.60;1.00;;;;;;4993333;28;20434;-80
2023/03/10 04:27:27;;;;;;;12.83;1.70;;;10.60;1.00;;;;;;4992268;28;20464;-80
2023/03/10 04:29:53;;;;;;;9.33;2.30;;;10.60;1.00;;;;;;4992399;28;20532;-80
2023/03/10 04:32:18;;;;;;;6.03;1.90;;;10.60;1.00;;;;;;4995019;28;20215;-80
2023/03/10 04:34:44;;;;;;;5.17;2.23;;;10.60;1.00;;;;;;5005135;28;20193;-80
2023/03/10 04:37:09;;;;;;;14.07;2.50;;;10.60;1.00;;;;;;5005445;28;20187;-80
2023/03/10 04:39:38;;;;;;;7.40;1.90;;;10.60;1.00;;;;;;5005042;28;20210;-79
2023/03/10 04:42:04;;;;;;;13.37;1.97;;;10.60;1.00;;;;;;5002253;28;20212;-81
2023/03/10 04:44:32;;;;;;;6.53;2.00;;;10.60;1.00;;;;;;5006489;28;20509;-81
2023/03/10 04:46:58;;;;;;;12.03;2.53;;;10.60;1.00;;;;;;5005085;28;20455;-80
2023/03/10 04:49:24;;;;;;;11.50;2.50;;;10.60;1.00;;;;;;5008459;28;20488;-80
2023/03/10 04:51:49;;;;;;;10.67;1.70;;;10.60;1.00;;;;;;5002926;28;20485;-81
2023/03/10 04:54:15;;;;;;;6.93;1.90;;;10.60;1.00;;;;;;4997183;28;20195;-80
2023/03/10 04:56:41;;;;;;;7.80;2.70;;;10.60;1.00;;;;;;4993324;28;20188;-78
2023/03/10 04:59:06;;;;;;;10.07;1.77;;;10.70;1.00;;;;;;4987604;28;20498;-80
2023/03/10 05:01:33;;;;;;;8.20;1.90;;;10.70;1.00;;;;;;4998605;28;20282;-80
2023/03/10 05:03:59;;;;;;;7.77;2.10;;;10.70;1.00;;;;;;5004209;28;20180;-81
2023/03/10 05:06:25;;;;;;;4.03;1.57;;;10.70;1.00;;;;;;5001891;28;20461;-80
2023/03/10 05:08:50;;;;;;;10.93;2.30;;;10.70;1.00;;;;;;5000574;28;20508;-81
2023/03/10 05:11:16;;;;;;;6.50;1.53;;;10.80;1.00;;;;;;4995219;28;20222;-80
2023/03/10 05:13:41;;;;;;;5.40;2.30;;;10.80;1.00;;;;;;4993899;28;20187;-80
2023/03/10 05:16:15;;;;;;;7.00;1.90;;;10.80;1.00;;;;;;4994998;28;20214;-80
2023/03/10 05:18:41;;;;;;;9.40;1.90;;;10.80;1.00;;;;;;5007092;28;20209;-80
2023/03/10 05:21:06;;;;;;;9.03;2.17;;;10.80;1.00;;;;;;5000189;28;20486;-80
2023/03/10 05:23:32;;;;;;;13.33;2.13;;;10.70;1.00;;;;;;5001368;28;20278;-80
2023/03/10 05:25:57;;;;;;;4.97;2.40;;;10.80;1.00;;;;;;5002569;28;20255;-80
2023/03/10 05:28:23;;;;;;;8.47;2.40;;;10.70;1.00;;;;;;4982216;28;20179;-80
2023/03/10 05:30:49;;;;;;;8.20;1.57;;;10.70;1.00;;;;;;5002164;28;20219;-80
2023/03/10 05:33:14;;;;;;;5.20;1.50;;;10.80;1.00;;;;;;5001778;28;20184;-80
2023/03/10 05:35:40;;;;;;;6.57;1.70;;;10.80;1.00;;;;;;5004386;28;20526;-80
2023/03/10 05:38:05;;;;;;;5.43;1.20;;;10.80;1.00;;;;;;4996244;28;20187;-80
2023/03/10 05:40:31;;;;;;;5.83;1.70;;;10.80;1.00;;;;;;5001860;28;20199;-80
2023/03/10 05:42:56;;;;;;;7.23;1.60;;;10.80;1.00;;;;;;5004254;28;20187;-80
2023/03/10 05:45:22;;;;;;;11.07;2.10;;;10.80;1.00;;;;;;5001978;28;20191;-80
2023/03/10 05:47:47;;;;;;;9.73;2.27;;;10.70;1.00;;;;;;4998524;28;20650;-81
2023/03/10 05:50:13;;;;;;;5.60;1.53;;;10.70;1.00;;;;;;4998274;28;20198;-80
2023/03/10 05:52:41;;;;;;;6.80;1.43;;;10.70;1.00;;;;;;5001166;28;20677;-80
2023/03/10 05:55:10;;;;;;;6.20;1.40;;;10.80;1.00;;;;;;4996981;28;20437;-80
2023/03/10 05:57:36;;;;;;;4.70;1.50;;;10.70;1.00;;;;;;4995814;28;20427;-80
2023/03/10 06:00:02;;;;;;;2.80;1.30;;;10.70;1.00;;;;;;4993225;28;20458;-80
2023/03/10 06:02:28;;;;;;;5.27;1.80;;;10.70;1.00;;;;;;5001248;28;20553;-80
2023/03/10 06:04:53;;;;;;;7.53;1.67;;;10.80;1.00;;;;;;4994373;28;20438;-80
2023/03/10 06:07:19;;;;;;;7.43;1.43;;;10.80;1.00;;;;;;4997471;28;20270;-80
2023/03/10 06:09:44;;;;;;;4.77;1.23;;;10.80;1.00;;;;;;5003881;28;20234;-80
2023/03/10 06:12:12;;;;;;;2.90;1.73;;;10.80;1.00;;;;;;5000348;28;20231;-80
2023/03/10 06:14:38;;;;;;;8.10;2.13;;;10.80;1.00;;;;;;4997350;28;20214;-80
2023/03/10 06:17:03;;;;;;;5.10;2.20;;;10.80;1.00;;;;;;5003315;28;20430;-80
2023/03/10 06:19:29;;;;;;;8.23;2.20;;;10.70;1.00;;;;;;5005243;28;20186;-80
2023/03/10 06:21:57;;;;;;;5.20;2.10;;;10.70;1.00;;;;;;5000624;28;20203;-81
2023/03/10 06:24:23;;;;;;;7.37;2.10;;;10.70;1.00;;;;;;4993959;28;20191;-81
2023/03/10 06:26:49;;;;;;;9.03;2.57;;;10.60;1.00;;;;;;4999050;28;21006;-81
2023/03/10 06:29:14;;;;;;;10.03;2.33;;;10.60;1.00;;;;;;4996601;28;20191;-81
2023/03/10 06:31:39;;;;;;;6.40;1.83;;;10.50;1.00;;;;;;4999653;28;20294;-81
2023/03/10 06:34:05;;;;;;;11.63;2.20;;;10.50;1.00;;;;;;4994854;28;20184;-81
2023/03/10 06:36:31;;;;;;;8.77;2.10;;;10.60;1.00;;;;;;4999540;28;20214;-81
2023/03/10 06:38:57;;;;;;;10.60;2.30;;;10.50;1.00;;;;;;4998465;28;20184;-80
2023/03/10 06:41:24;;;;;;;8.80;1.90;;;10.60;1.00;;;;;;4992274;28;20467;-80
2023/03/10 06:43:52;;;;;;;6.53;1.70;;;10.50;1.00;;;;;;4997691;28;20446;-80
2023/03/10 06:46:17;;;;;;;11.47;2.40;;;10.60;1.00;;;;;;4998063;28;20429;-81
2023/03/10 06:48:45;;;;;;;8.73;2.00;;;10.70;1.00;;;;;;4997299;28;20455;-81
2023/03/10 06:51:17;;;;;;;4.57;1.60;;;10.80;1.00;;;;;;4997948;28;20243;-81
2023/03/10 06:53:42;;;;;;;12.37;1.90;;;10.90;1.00;;;;;;4997209;28;20478;-80
2023/03/10 06:56:12;;;;;;;13.40;8.77;;;10.90;1.00;;;;;;4980390;28;20474;-81
2023/03/10 06:58:38;;;;;;;6.27;1.53;;;10.90;1.00;;;;;;4998505;28;20199;-80
2023/03/10 07:01:05;;;;;;;5.60;2.10;;;10.90;1.00;;;;;;4998931;28;21017;-79
2023/03/10 07:03:31;;;;;;;8.33;3.40;;;10.90;1.00;;;;;;4985957;28;20478;-79
2023/03/10 07:05:58;;;;;;;10.10;2.60;;;10.90;1.00;;;;;;4997675;28;20877;-81
2023/03/10 07:08:24;;;;;;;7.83;2.73;;;11.10;1.00;;;;;;5007193;28;20204;-79
2023/03/10 07:10:50;;;;;;;14.80;2.60;;;11.20;1.00;;;;;;4996268;28;20478;-79
2023/03/10 07:13:16;;;;;;;5.83;2.40;;;11.30;1.00;;;;;;5001456;28;20423;-79
2023/03/10 07:15:43;;;;;;;11.80;1.73;;;11.40;1.00;;;;;;4995297;28;20175;-79
2023/03/10 07:18:14;;;;;;;12.93;1.90;;;11.70;1.00;;;;;;4998675;28;20435;-80
2023/03/10 07:20:43;;;;;;;5.67;1.90;;;12.10;1.00;;;;;;4998019;28;20705;-79
2023/03/10 07:23:09;;;;;;;11.50;2.60;;;13.40;1.00;;;;;;4998338;28;20418;-79
2023/03/10 07:25:36;;;;;;;8.20;1.80;;;15.50;99.90;;;;;;4997505;28;20453;-80
2023/03/10 07:28:02;;;;;;;7.30;2.37;;;16.90;98.70;;;;;;4999147;28;20420;-79
2023/03/10 07:30:28;;;;;;;5.37;1.90;;;16.30;83.00;;;;;;4997535;28;20454;-79
2023/03/10 07:32:53;;;;;;;6.10;1.70;;;15.70;1.00;;;;;;4997014;28;20707;-79
2023/03/10 07:35:19;;;;;;;6.73;1.83;;;15.00;99.90;;;;;;4998298;28;20226;-79
2023/03/10 07:37:44;;;;;;;6.00;2.17;;;14.40;92.70;;;;;;4998213;28;20250;-79
2023/03/10 07:40:10;;;;;;;4.23;1.20;;;13.90;1.00;;;;;;4996006;28;20188;-79
2023/03/10 07:42:36;;;;;;;5.97;2.10;;;13.60;1.00;;;;;;4993708;28;20187;-79
2023/03/10 07:45:02;;;;;;;3.23;1.10;;;13.20;99.90;;;;;;4997742;28;20442;-79
2023/03/10 07:47:28;;;;;;;6.13;1.40;;;13.00;1.00;;;;;;4997124;28;20185;-79
2023/03/10 07:49:53;;;;;;;7.43;1.53;;;13.00;5.00;;;;;;5002664;28;20435;-79
2023/03/10 07:52:19;;;;;;;7.90;2.10;;;13.00;1.00;;;;;;5001796;28;20214;-79
2023/03/10 07:54:45;;;;;;;3.70;1.87;;;13.10;1.00;;;;;;5004693;28;20193;-79
2023/03/10 07:57:13;;;;;;;7.70;1.50;;;13.30;1.00;;;;;;4998282;28;20241;-78
2023/03/10 07:59:39;;;;;;;4.57;1.10;;;13.30;1.00;;;;;;4995888;28;20658;-78
2023/03/10 08:02:05;;;;;;;2.93;1.40;;;13.30;1.00;;;;;;5007613;28;20467;-79
2023/03/10 08:04:31;;;;;;;8.40;1.60;;;13.40;99.90;;;;;;5006122;28;20204;-79
2023/03/10 08:07:00;;;;;;;5.63;1.77;;;13.60;1.00;;;;;;5002473;28;20445;-79
2023/03/10 08:09:27;;;;;;;7.67;1.80;;;13.80;99.90;;;;;;4997445;28;20206;-79
2023/03/10 08:11:52;;;;;;;7.73;2.17;;;13.90;87.40;;;;;;5001618;28;20950;-79
2023/03/10 08:14:18;;;;;;;8.60;1.93;;;14.00;1.00;;;;;;5008627;28;20473;-79
2023/03/10 08:16:43;;;;;;;6.30;1.90;;;14.20;1.00;;;;;;5005047;28;20656;-80
2023/03/10 08:19:09;;;;;;;9.13;2.00;;;14.60;99.90;;;;;;4998064;28;20187;-79
2023/03/10 08:21:34;;;;;;;8.87;3.23;;;15.00;99.90;;;;;;4978899;28;20214;-79
2023/03/10 08:24:00;;;;;;;7.33;2.07;;;15.20;1.00;;;;;;4995812;28;21896;-80
2023/03/10 08:26:25;;;;;;;11.27;2.00;;;15.30;99.90;;;;;;5000611;28;20183;-79
2023/03/10 08:28:51;;;;;;;10.93;2.63;;;15.40;99.90;;;;;;4994772;28;20196;-80
2023/03/10 08:31:18;;;;;;;9.10;2.33;;;16.20;1.00;;;;;;5005059;28;20736;-80
2023/03/10 08:33:45;;;;;;;14.43;1.70;;;16.60;99.90;;;;;;4997238;28;20637;-81
2023/03/10 08:36:16;;;;;;;8.40;2.00;;;16.60;51.10;;;;;;5001592;28;20453;-80
2023/03/10 08:38:43;;;;;;;8.60;3.53;;;17.20;1.00;;;;;;4985443;28;20610;-80
2023/03/10 08:41:11;;;;;;;8.77;3.00;;;19.70;1.00;;;;;;5000958;28;20478;-80
2023/03/10 08:43:38;;;;;;;12.53;2.83;;;19.90;1.00;;;;;;4999907;28;20787;-80
2023/03/10 08:46:04;;;;;;;6.33;2.00;;;21.80;99.90;;;;;;4998936;28;20453;-81
2023/03/10 08:48:30;;;;;;;8.47;2.13;;;24.20;99.90;;;;;;4993728;28;20452;-81
2023/03/10 08:50:56;;;;;;;5.40;2.27;;;25.70;99.90;;;;;;5006195;28;20482;-81
2023/03/10 08:53:22;;;;;;;8.10;2.40;;;27.60;99.90;;;;;;4998007;28;20206;-81
2023/03/10 08:55:47;;;;;;;7.77;2.40;;;26.30;99.90;;;;;;4969515;28;20539;-81
2023/03/10 08:58:16;;;;;;;8.30;2.97;;;24.70;99.90;;;;;;4997014;28;20191;-81
2023/03/10 09:00:44;;;;;;;5.23;2.40;;;23.90;99.90;;;;;;5003171;28;20210;-81
2023/03/10 09:03:10;;;;;;;6.00;2.37;;;23.40;99.90;;;;;;4989196;28;20441;-81
2023/03/10 09:05:38;;;;;;;13.53;2.40;;;22.90;99.90;;;;;;4994992;28;20429;-80
2023/03/10 09:08:05;;;;;;;7.90;2.17;;;22.20;99.90;;;;;;4993206;28;20194;-81
2023/03/10 09:10:30;;;;;;;8.20;2.35;;;21.50;99.90;;;;;;4995162;28;20825;-81
2023/03/10 09:12:56;;;;;;;6.83;2.30;;;20.80;99.90;;;;;;5003207;28;20439;-80
2023/03/10 09:15:21;;;;;;;13.53;2.57;;;20.20;99.90;;;;;;4995584;28;20176;-81
2023/03/10 09:17:47;;;;;;;5.33;2.00;;;19.90;99.90;;;;;;4995208;28;20187;-80
2023/03/10 09:20:14;;;;;;;11.70;2.20;;;19.70;99.90;;;;;;4996545;28;20265;-81
2023/03/10 09:22:40;;;;;;;6.30;2.23;;;19.50;99.90;;;;;;4996813;28;20981;-80
2023/03/10 09:25:06;;;;;;;8.40;1.97;;;19.20;99.90;;;;;;4997740;28;20438;-80
2023/03/10 09:27:32;;;;;;;9.80;2.50;;;19.10;99.90;;;;;;4996961;28;20909;-80
2023/03/10 09:29:57;;;;;;;6.43;1.70;;;18.90;99.90;;;;;;4994343;28;20449;-80
2023/03/10 09:32:23;;;;;;;8.87;2.50;;;18.90;99.90;;;;;;5012242;28;20672;-80
2023/03/10 09:34:49;;;;;;;11.70;2.10;;;19.60;99.90;;;;;;5009870;28;20197;-81
2023/03/10 09:37:14;;;;;;;6.87;2.40;;;21.60;99.90;;;;;;4996715;28;20182;-80
2023/03/10 09:39:40;;;;;;;8.67;2.30;;;22.40;99.90;;;;;;4996341;28;20186;-80
2023/03/10 09:42:36;;;;;;;10.43;1.90;;;22.60;99.90;;;;;;4996672;28;20959;-81
2023/03/10 09:45:29;;;;;;;5.10;2.10;;;22.50;99.90;;;;;;4996067;28;20188;-80
2023/03/10 09:48:00;;;;;;;9.20;2.23;;;21.90;99.90;;;;;;4996048;28;20481;-80
2023/03/10 09:50:48;;;;;;;8.67;1.67;;;21.20;99.90;;;;;;5009671;28;20444;-80
2023/03/10 09:53:41;;;;;;;10.13;3.50;;;20.40;99.90;;;;;;4995537;28;20437;-80
2023/03/10 09:56:13;;;;;;;5.03;1.30;;;19.80;99.90;;;;;;4984025;28;20419;-81
2023/03/10 09:58:57;;;;;;;4.30;1.47;;;19.50;99.90;;;;;;4996430;28;20418;-81
2023/03/10 10:01:26;;;;;;;4.50;1.30;;;19.20;99.90;;;;;;4995570;28;20548;-80
2023/03/10 10:03:55;;;;;;;5.67;1.47;;;18.90;99.90;;;;;;4996153;28;20442;-81
2023/03/10 10:06:28;;;;;;;5.23;1.40;;;18.70;99.90;;;;;;4997298;28;20987;-81
2023/03/10 10:08:59;;;;;;;2.60;1.60;;;18.40;99.90;;;;;;4998707;28;20442;-80
2023/03/10 10:11:24;;;;;;;5.33;1.70;;;18.10;99.90;;;;;;4999310;28;20474;-80
2023/03/10 10:14:10;;;;;;;6.93;1.67;;;18.00;99.90;;;;;;4999191;28;20592;-81
2023/03/10 10:16:54;;;;;;;4.83;1.63;;;17.70;99.90;;;;;;5000558;28;20179;-80
2023/03/10 10:19:23;;;;;;;5.20;1.27;;;17.20;99.90;;;;;;4998628;28;20519;-80
2023/03/10 10:22:20;;;;;;;4.93;1.37;;;16.70;99.90;;;;;;5003483;28;20500;-80
2023/03/10 10:25:13;;;;;;;8.60;1.83;;;16.30;99.90;;;;;;4987970;28;20462;-80
2023/03/10 10:27:41;;;;;;;5.73;1.50;;;16.10;99.90;;;;;;4992822;28;20457;-80
2023/03/10 10:30:37;;;;;;;5.97;1.40;;;15.90;99.90;;;;;;4998600;28;20415;-80
2023/03/10 10:33:05;;;;;;;5.57;1.60;;;15.60;99.90;;;;;;4996601;28;20788;-79
2023/03/10 10:35:39;;;;;;;8.10;1.50;;;15.40;99.90;;;;;;4996563;28;20812;-79
2023/03/10 10:38:12;;;;;;;4.67;1.30;;;15.30;99.90;;;;;;4997689;28;20477;-79
2023/03/10 10:41:15;;;;;;;7.03;1.27;;;15.30;99.90;;;;;;4997693;28;20473;-79
2023/03/10 10:43:42;;;;;;;3.60;1.53;;;15.30;99.90;;;;;;4999012;28;20418;-79
2023/03/10 10:46:10;;;;;;;4.83;1.40;;;15.30;99.90;;;;;;4998438;28;20951;-79
2023/03/10 10:48:39;;;;;;;4.23;1.43;;;15.30;99.90;;;;;;4997509;28;20425;-80
2023/03/10 10:51:17;;;;;;;6.53;1.07;;;15.20;99.90;;;;;;5001060;28;20473;-79
2023/03/10 10:53:43;;;;;;;4.10;0.93;;;15.00;99.90;;;;;;4997771;28;20438;-79
2023/03/10 10:56:15;;;;;;;3.77;1.13;;;14.80;1.00;;;;;;4997764;28;20426;-79
2023/03/10 10:58:42;;;;;;;4.67;0.97;;;14.50;1.00;;;;;;4994868;28;20179;-80
2023/03/10 11:01:14;;;;;;;2.00;0.83;;;14.20;1.00;;;;;;4992811;28;20508;-79
2023/03/10 11:03:47;;;;;;;4.40;1.00;;;13.90;1.00;;;;;;4996930;28;20439;-80
2023/03/10 11:06:23;;;;;;;7.80;1.97;;;13.70;99.90;;;;;;5000514;28;20550;-80
2023/03/10 11:08:51;;;;;;;3.87;1.00;;;13.30;1.00;;;;;;5005677;28;20453;-79
2023/03/10 11:11:37;;;;;;;2.07;0.90;;;13.10;1.00;;;;;;4994316;28;21718;-79
2023/03/10 11:14:12;;;;;;;8.57;1.47;;;12.90;1.00;;;;;;4988248;28;20469;-79
2023/03/10 11:16:50;;;;;;;8.40;2.10;;;12.70;99.90;;;;;;4983257;28;20853;-80
2023/03/10 11:19:40;;;;;;;12.27;4.00;;;12.60;99.90;;;;;;4992495;28;20438;-80
2023/03/10 11:22:34;;;;;;;10.60;2.80;;;12.50;1.00;;;;;;4996015;28;20466;-80
2023/03/10 11:25:04;;;;;;;4.93;2.13;;;12.40;99.90;;;;;;4981500;28;20489;-79
2023/03/10 11:27:52;;;;;;;3.60;3.23;;;12.40;1.00;;;;;;4999163;28;20435;-79
2023/03/10 11:30:34;;;;;;;4.50;2.20;;;12.40;1.00;;;;;;4996973;28;20462;-79
2023/03/10 11:33:23;;;;;;;7.43;2.47;;;12.60;1.00;;;;;;4998540;28;20442;-79
2023/03/10 11:35:52;;;;;;;6.00;1.23;;;12.60;1.00;;;;;;5005131;28;20435;-79
2023/03/10 11:38:38;;;;;;;3.57;1.43;;;12.60;99.90;;;;;;4999120;28;20449;-78
2023/03/10 11:41:16;;;;;;;3.60;1.00;;;12.60;99.90;;;;;;4999519;28;21013;-80
2023/03/10 11:43:59;;;;;;;4.33;1.30;;;12.60;99.90;;;;;;4997213;28;20464;-79
2023/03/10 11:46:59;;;;;;;4.20;1.10;;;12.70;1.00;;;;;;4996308;28;21037;-80
2023/03/10 11:49:34;;;;;;;2.17;0.90;;;12.80;1.00;;;;;;5001286;28;20467;-80
2023/03/10 11:52:04;;;;;;;1.93;1.00;;;12.90;1.00;;;;;;5007276;28;20476;-81
2023/03/10 11:54:37;;;;;;;4.87;1.60;;;13.00;1.00;;;;;;4978234;28;20488;-80
2023/03/10 11:57:09;;;;;;;5.63;2.30;;;13.10;99.90;;;;;;4995793;28;20841;-80
2023/03/10 11:59:45;;;;;;;2.77;1.20;;;13.10;99.90;;;;;;5000779;28;20859;-82
2023/03/10 12:02:16;;;;;;;1.20;0.73;;;13.20;1.00;;;;;;4996655;28;20495;-81
2023/03/10 12:04:57;;;;;;;1.40;0.90;;;13.30;99.90;;;;;;4998221;28;20450;-81
2023/03/10 12:07:39;;;;;;;1.67;1.07;;;13.20;99.90;;;;;;4998721;28;20505;-81
2023/03/10 12:10:10;;;;;;;1.20;0.70;;;13.10;99.90;;;;;;5000637;28;20507;-80
2023/03/10 12:12:42;;;;;;;2.13;0.70;;;12.90;1.00;;;;;;4998498;28;20943;-81
2023/03/10 12:15:24;;;;;;;1.73;1.10;;;12.80;1.00;;;;;;4988523;28;20450;-81
2023/03/10 12:17:52;;;;;;;2.33;1.70;;;12.70;1.00;;;;;;4989710;28;20442;-80
2023/03/10 12:20:24;;;;;;;3.27;2.50;;;12.70;1.00;;;;;;5002177;28;20995;-81
2023/03/10 12:23:20;;;;;;;3.50;2.10;;;12.70;1.00;;;;;;4993126;28;20438;-81
2023/03/10 12:25:47;;;;;;;1.40;1.00;;;12.70;22.30;;;;;;4997254;28;20438;-81
2023/03/10 12:28:15;;;;;;;1.30;0.87;;;12.70;31.10;;;;;;5003945;28;21030;-81
2023/03/10 12:30:58;;;;;;;1.40;0.97;;;12.70;70.10;;;;;;5007724;28;20971;-81
2023/03/10 12:33:30;;;;;;;1.33;0.90;;;12.60;99.90;;;;;;5008078;28;20971;-82
2023/03/10 12:36:17;;;;;;;2.73;0.87;;;12.70;99.90;;;;;;5008799;28;20906;-81
2023/03/10 12:38:58;;;;;;;1.50;0.90;;;12.70;99.90;;;;;;4993161;28;20431;-81
2023/03/10 12:41:26;;;;;;;2.90;1.87;;;12.60;99.90;;;;;;4999331;28;20930;-81
2023/03/10 12:43:55;;;;;;;3.60;1.40;;;12.50;99.90;;;;;;5009061;28;20445;-81
2023/03/10 12:46:40;;;;;;;1.43;1.10;;;12.50;99.90;;;;;;4970960;28;20442;-81
2023/03/10 12:49:24;;;;;;;4.03;1.30;;;12.40;99.90;;;;;;4984295;28;20445;-81
2023/03/10 12:51:58;;;;;;;1.30;0.80;;;12.40;99.90;;;;;;5000558;28;20516;-81
2023/03/10 12:54:41;;;;;;;2.03;0.90;;;12.50;99.90;;;;;;5000094;28;20431;-81
2023/03/10 12:57:17;;;;;;;1.40;0.80;;;12.50;99.90;;;;;;5008947;28;20495;-81
2023/03/10 12:59:56;;;;;;;2.40;1.23;;;12.50;99.90;;;;;;5002384;28;20977;-81
2023/03/10 13:02:29;;;;;;;1.40;1.00;;;12.50;99.90;;;;;;4981468;28;20478;-82
2023/03/10 13:05:17;;;;;;;2.20;1.10;;;12.50;99.90;;;;;;4981055;28;20499;-81